Time;durP1;ratioP1;P1;durP2;ratioP2;P2;SDS_P1;SDS_P2;PMS_P1;PMS_P2;Temp;Humidity;BMP_temperature;BMP_pressure;BME280_temperature;BME280_humidity;BME280_pressure;Samples;Min_cycle;Max_cycle;Signal;HPM_P1;HPM_P2
2022/06/27 00:01:33;;;;;;;8.93;5.30;;;16.90;99.90;;;;;;5070519;28;20036;-59
2022/06/27 00:03:59;;;;;;;7.95;5.20;;;16.80;99.90;;;;;;5071002;28;20111;-59
2022/06/27 00:06:25;;;;;;;10.35;4.40;;;16.80;99.90;;;;;;5072205;28;20029;-59
2022/06/27 00:08:50;;;;;;;7.00;5.07;;;16.80;99.90;;;;;;5071707;28;20074;-59
2022/06/27 00:11:17;;;;;;;8.65;5.07;;;16.80;99.90;;;;;;5071246;28;20021;-59
2022/06/27 00:13:43;;;;;;;10.10;5.43;;;16.80;99.90;;;;;;5071624;28;20111;-59
2022/06/27 00:16:09;;;;;;;6.88;4.72;;;16.80;99.90;;;;;;5071716;28;20125;-59
2022/06/27 00:18:35;;;;;;;8.48;5.30;;;16.80;99.90;;;;;;5071901;28;20024;-59
2022/06/27 00:21:00;;;;;;;10.70;4.93;;;16.80;99.90;;;;;;5071863;28;20067;-59
2022/06/27 00:23:26;;;;;;;7.80;5.28;;;16.80;99.90;;;;;;5071649;28;20036;-59
2022/06/27 00:25:51;;;;;;;7.13;5.50;;;16.80;99.90;;;;;;5071950;28;20029;-59
2022/06/27 00:28:17;;;;;;;10.60;4.53;;;16.90;99.90;;;;;;5071653;28;20028;-58
2022/06/27 00:30:43;;;;;;;6.18;4.47;;;16.90;99.90;;;;;;5071640;28;20162;-58
2022/06/27 00:33:08;;;;;;;5.90;4.28;;;16.90;99.90;;;;;;5070109;28;20441;-59
2022/06/27 00:35:34;;;;;;;6.95;4.75;;;16.90;99.90;;;;;;5071869;28;20017;-59
2022/06/27 00:38:00;;;;;;;6.60;4.93;;;17.00;99.90;;;;;;5071285;28;20028;-58
2022/06/27 00:40:25;;;;;;;14.07;5.68;;;17.00;99.90;;;;;;5071721;28;20027;-58
2022/06/27 00:42:51;;;;;;;8.30;4.88;;;17.00;99.90;;;;;;5071252;28;20040;-58
2022/06/27 00:45:16;;;;;;;12.05;5.28;;;17.00;99.90;;;;;;5071504;28;20485;-59
2022/06/27 00:47:43;;;;;;;7.82;5.03;;;17.00;99.90;;;;;;5071552;28;20834;-58
2022/06/27 00:50:09;;;;;;;6.78;4.95;;;17.00;99.90;;;;;;5070840;28;20017;-59
2022/06/27 00:52:35;;;;;;;8.68;5.32;;;16.90;99.90;;;;;;5071073;28;20573;-60
2022/06/27 00:55:01;;;;;;;6.93;5.15;;;16.90;99.90;;;;;;5071152;28;20111;-58
2022/06/27 00:57:28;;;;;;;6.65;5.25;;;17.00;99.90;;;;;;5071345;28;20056;-59
2022/06/27 00:59:53;;;;;;;7.60;4.97;;;17.00;99.90;;;;;;5071428;28;20083;-60
2022/06/27 01:02:19;;;;;;;6.82;4.30;;;16.90;99.90;;;;;;5070990;28;20171;-60
2022/06/27 01:04:44;;;;;;;7.40;5.78;;;17.00;99.90;;;;;;5071338;28;20016;-59
2022/06/27 01:07:11;;;;;;;7.40;4.97;;;17.00;99.90;;;;;;5071329;28;20150;-59
2022/06/27 01:09:37;;;;;;;5.28;3.90;;;17.10;99.90;;;;;;5071006;28;20028;-58
2022/06/27 01:12:04;;;;;;;5.68;4.45;;;17.10;99.90;;;;;;5071116;28;20028;-58
2022/06/27 01:14:30;;;;;;;7.18;5.10;;;17.10;99.90;;;;;;5071096;28;20112;-59
2022/06/27 01:16:57;;;;;;;8.77;5.35;;;17.00;99.90;;;;;;5071163;28;20457;-60
2022/06/27 01:19:22;;;;;;;8.48;5.95;;;17.00;99.90;;;;;;5071139;28;20032;-59
2022/06/27 01:21:54;;;;;;;7.20;5.32;;;17.00;99.90;;;;;;5069398;28;20025;-59
2022/06/27 01:24:22;;;;;;;8.07;5.65;;;16.90;99.90;;;;;;5071310;28;20040;-59
2022/06/27 01:26:48;;;;;;;7.93;6.38;;;17.00;99.90;;;;;;5070764;28;20071;-59
2022/06/27 01:29:14;;;;;;;9.00;6.45;;;16.90;99.90;;;;;;5070972;28;20102;-58
2022/06/27 01:31:40;;;;;;;8.23;6.50;;;16.90;99.90;;;;;;5070817;28;20487;-59
2022/06/27 01:34:07;;;;;;;7.63;6.13;;;17.00;99.90;;;;;;5071155;28;20058;-61
2022/06/27 01:36:42;;;;;;;7.18;5.75;;;17.00;99.90;;;;;;5071075;28;20541;-60
2022/06/27 01:39:15;;;;;;;8.35;6.75;;;17.10;99.90;;;;;;5070823;28;20029;-60
2022/06/27 01:41:43;;;;;;;6.55;5.80;;;17.10;99.90;;;;;;5070922;28;20028;-59
2022/06/27 01:44:10;;;;;;;6.40;5.68;;;17.20;99.90;;;;;;5071056;28;20514;-60
2022/06/27 01:46:39;;;;;;;7.60;5.47;;;17.10;99.90;;;;;;5071073;28;20051;-60
2022/06/27 01:49:05;;;;;;;6.93;5.32;;;17.20;99.90;;;;;;5070799;28;20028;-60
2022/06/27 01:51:31;;;;;;;7.43;5.38;;;17.20;99.90;;;;;;5057111;28;20032;-60
2022/06/27 01:53:56;;;;;;;7.55;5.22;;;17.10;99.90;;;;;;5070703;28;20055;-60
2022/06/27 01:56:22;;;;;;;8.65;5.43;;;17.10;99.90;;;;;;5070936;28;20033;-60
2022/06/27 01:58:48;;;;;;;13.73;5.55;;;17.10;99.90;;;;;;5071031;28;20068;-60
2022/06/27 02:01:13;;;;;;;6.65;5.38;;;17.10;99.90;;;;;;5071638;28;20109;-58
2022/06/27 02:03:39;;;;;;;8.60;5.00;;;17.10;99.90;;;;;;5074370;28;20028;-60
2022/06/27 02:06:05;;;;;;;7.07;5.45;;;17.10;99.90;;;;;;5074461;28;20031;-60
2022/06/27 02:08:32;;;;;;;10.10;5.43;;;17.10;99.90;;;;;;5073929;28;20146;-60
2022/06/27 02:10:57;;;;;;;8.50;5.25;;;17.10;99.90;;;;;;5074365;28;20071;-59
2022/06/27 02:13:23;;;;;;;9.88;5.15;;;17.10;99.90;;;;;;5073600;28;20031;-60
2022/06/27 02:16:02;;;;;;;8.23;5.45;;;17.10;99.90;;;;;;5074221;28;20021;-59
2022/06/27 02:18:28;;;;;;;9.10;5.10;;;17.20;99.90;;;;;;5074318;28;20021;-61
2022/06/27 02:20:54;;;;;;;9.55;5.63;;;17.10;99.90;;;;;;5074149;28;20027;-57
2022/06/27 02:23:19;;;;;;;7.28;5.75;;;17.10;99.90;;;;;;5073642;28;20032;-60
2022/06/27 02:25:45;;;;;;;10.30;5.30;;;17.10;99.90;;;;;;5074200;28;20097;-59
2022/06/27 02:28:12;;;;;;;6.97;5.35;;;16.90;99.90;;;;;;5074026;28;20036;-59
2022/06/27 02:30:38;;;;;;;7.45;5.35;;;16.80;99.90;;;;;;5074056;28;20024;-58
2022/06/27 02:33:04;;;;;;;5.65;5.05;;;16.90;99.90;;;;;;5073601;28;20025;-59
2022/06/27 02:35:30;;;;;;;7.80;5.43;;;16.90;99.90;;;;;;5073840;28;20035;-58
2022/06/27 02:37:56;;;;;;;10.23;6.10;;;16.90;99.90;;;;;;5073578;28;20130;-59
2022/06/27 02:40:23;;;;;;;13.93;5.88;;;16.90;99.90;;;;;;5073954;28;20020;-60
2022/06/27 02:42:52;;;;;;;8.48;6.03;;;16.90;99.90;;;;;;5073523;28;20390;-58
2022/06/27 02:45:18;;;;;;;6.72;5.40;;;16.90;99.90;;;;;;5073771;28;20394;-59
2022/06/27 02:47:47;;;;;;;7.38;5.70;;;17.00;99.90;;;;;;5073584;28;20024;-60
2022/06/27 02:50:13;;;;;;;5.63;4.57;;;17.00;99.90;;;;;;5073560;28;20032;-59
2022/06/27 02:52:47;;;;;;;10.85;5.05;;;17.00;99.90;;;;;;5073060;28;20559;-59
2022/06/27 02:55:14;;;;;;;;;;;17.00;99.90;;;;;;5073769;28;20040;-58
2022/06/27 02:57:47;;;;;;;9.02;5.25;;;16.80;99.90;;;;;;5073443;28;20290;-59
2022/06/27 03:00:14;;;;;;;8.63;6.35;;;16.90;99.90;;;;;;5073478;28;20113;-59
2022/06/27 03:02:42;;;;;;;5.88;5.18;;;16.90;99.90;;;;;;5072904;28;20031;-60
2022/06/27 03:05:07;;;;;;;9.80;5.15;;;16.90;99.90;;;;;;5072084;28;20435;-60
2022/06/27 03:07:40;;;;;;;8.75;5.38;;;16.90;99.90;;;;;;5073254;28;20031;-60
2022/06/27 03:10:07;;;;;;;9.32;5.15;;;16.90;99.90;;;;;;5073050;28;20033;-57
2022/06/27 03:12:32;;;;;;;11.52;6.43;;;16.80;99.90;;;;;;5072384;28;20056;-60
2022/06/27 03:14:58;;;;;;;9.70;5.93;;;16.60;99.90;;;;;;5073089;28;20109;-60
2022/06/27 03:17:23;;;;;;;7.10;5.18;;;16.60;99.90;;;;;;5072942;28;20028;-60
2022/06/27 03:19:50;;;;;;;10.63;5.53;;;16.70;99.90;;;;;;5073033;28;20032;-60
2022/06/27 03:22:19;;;;;;;5.60;4.72;;;16.70;99.90;;;;;;5072628;28;20103;-60
2022/06/27 03:24:44;;;;;;;9.00;6.03;;;16.80;99.90;;;;;;5072707;28;20020;-60
2022/06/27 03:27:10;;;;;;;9.18;6.18;;;16.70;99.90;;;;;;5072933;28;20523;-60
2022/06/27 03:29:36;;;;;;;9.25;5.40;;;16.60;99.90;;;;;;5120313;22;20513;-65
2022/06/27 03:32:03;;;;;;;8.15;5.57;;;16.60;99.90;;;;;;5102064;28;20043;-65
2022/06/27 03:34:29;;;;;;;12.80;6.60;;;16.70;99.90;;;;;;5111726;28;20080;-65
2022/06/27 03:36:54;;;;;;;10.88;6.03;;;16.60;99.90;;;;;;5111120;28;20028;-65
2022/06/27 03:39:20;;;;;;;9.25;5.95;;;16.60;99.90;;;;;;5111352;28;20031;-65
2022/06/27 03:41:46;;;;;;;9.20;6.28;;;16.60;99.90;;;;;;5111217;28;20032;-65
2022/06/27 03:44:11;;;;;;;7.43;5.47;;;16.60;99.90;;;;;;5111260;28;20034;-65
2022/06/27 03:46:37;;;;;;;11.13;6.32;;;16.50;99.90;;;;;;5111218;28;20019;-65
2022/06/27 03:51:48;;;;;;;7.90;6.45;;;16.50;99.90;;;;;;5110626;28;20038;-65
2022/06/27 03:54:14;;;;;;;10.45;6.28;;;16.40;99.90;;;;;;5110805;28;20409;-65
2022/06/27 03:56:40;;;;;;;14.57;7.20;;;16.50;99.90;;;;;;5110303;28;20028;-65
2022/06/27 03:59:06;;;;;;;13.85;7.18;;;16.50;99.90;;;;;;5109098;28;20499;-65
2022/06/27 04:01:32;;;;;;;12.20;7.32;;;16.50;99.90;;;;;;5110346;28;20454;-65
2022/06/27 04:03:57;;;;;;;10.32;6.68;;;16.40;99.90;;;;;;5110815;28;20438;-65
2022/06/27 04:06:23;;;;;;;9.73;6.53;;;16.50;99.90;;;;;;5110632;28;20020;-65
2022/06/27 04:08:48;;;;;;;9.48;6.10;;;16.50;99.90;;;;;;5110395;28;20104;-65
2022/06/27 04:11:14;;;;;;;10.15;6.38;;;16.50;99.90;;;;;;5110776;28;20036;-66
2022/06/27 04:13:39;;;;;;;11.05;6.97;;;16.50;99.90;;;;;;5109877;28;20023;-64
2022/06/27 04:16:05;;;;;;;13.48;6.82;;;16.50;99.90;;;;;;5110765;28;20032;-64
2022/06/27 04:18:32;;;;;;;12.43;7.72;;;16.60;99.90;;;;;;5110683;28;20157;-65
2022/06/27 04:20:57;;;;;;;11.77;6.28;;;16.50;99.90;;;;;;5109878;28;20031;-66
2022/06/27 04:23:23;;;;;;;8.23;6.85;;;16.50;99.90;;;;;;5110362;28;20763;-65
2022/06/27 04:25:49;;;;;;;10.38;6.22;;;16.60;99.90;;;;;;5109586;28;20020;-65
2022/06/27 04:28:14;;;;;;;7.80;6.28;;;16.70;99.90;;;;;;5108783;28;20484;-64
2022/06/27 04:30:40;;;;;;;11.27;5.88;;;16.70;99.90;;;;;;5104346;28;20117;-66
2022/06/27 04:33:07;;;;;;;9.10;6.05;;;16.80;99.90;;;;;;5107692;28;20024;-65
2022/06/27 04:35:33;;;;;;;11.73;5.63;;;16.70;99.90;;;;;;5110081;28;20084;-64
2022/06/27 04:37:58;;;;;;;8.85;5.80;;;16.70;99.90;;;;;;5110395;28;20035;-64
2022/06/27 04:40:25;;;;;;;11.75;6.22;;;16.60;99.90;;;;;;5110161;28;20505;-66
2022/06/27 04:42:50;;;;;;;13.32;7.50;;;16.70;99.90;;;;;;5091841;28;20031;-65
2022/06/27 04:45:18;;;;;;;12.02;6.97;;;16.60;99.90;;;;;;5110311;28;20407;-63
2022/06/27 04:47:45;;;;;;;15.80;8.95;;;16.70;99.90;;;;;;5110210;28;20023;-63
2022/06/27 04:50:14;;;;;;;9.90;7.35;;;16.80;99.90;;;;;;5109548;28;20030;-64
2022/06/27 04:52:40;;;;;;;13.15;7.28;;;16.80;99.90;;;;;;5109726;28;20070;-63
2022/06/27 04:55:08;;;;;;;12.05;7.50;;;16.90;99.90;;;;;;5109474;28;20058;-63
2022/06/27 04:57:37;;;;;;;10.68;7.50;;;17.00;99.90;;;;;;5110009;28;20051;-63
2022/06/27 05:00:05;;;;;;;12.07;7.47;;;17.20;99.90;;;;;;5110432;28;20020;-64
2022/06/27 05:02:31;;;;;;;11.10;7.60;;;17.30;99.90;;;;;;5108989;28;20035;-63
2022/06/27 05:04:56;;;;;;;9.15;6.40;;;17.40;99.90;;;;;;5110000;28;20024;-63
2022/06/27 05:07:23;;;;;;;8.35;6.47;;;17.50;99.90;;;;;;5110121;28;20045;-64
2022/06/27 05:09:52;;;;;;;8.65;6.32;;;17.70;99.90;;;;;;5109482;28;20077;-64
2022/06/27 05:12:19;;;;;;;10.05;7.15;;;17.80;99.90;;;;;;5109687;28;20047;-63
2022/06/27 05:14:44;;;;;;;11.57;7.63;;;17.80;99.90;;;;;;5109872;28;20043;-64
2022/06/27 05:17:10;;;;;;;12.23;9.00;;;17.90;99.90;;;;;;5109357;28;20035;-64
2022/06/27 05:19:36;;;;;;;15.68;8.60;;;17.90;99.90;;;;;;5110179;28;20042;-63
2022/06/27 05:22:01;;;;;;;9.48;7.70;;;17.90;99.90;;;;;;5108673;28;20036;-63
2022/06/27 05:24:27;;;;;;;12.68;8.93;;;17.90;99.90;;;;;;5109417;28;20034;-62
2022/06/27 05:26:54;;;;;;;11.40;7.63;;;18.00;99.90;;;;;;5109457;28;20019;-64
2022/06/27 05:29:20;;;;;;;18.67;9.30;;;18.00;99.90;;;;;;5109591;28;20023;-64
2022/06/27 05:31:46;;;;;;;20.30;10.85;;;18.10;99.90;;;;;;5091081;28;20054;-64
2022/06/27 05:34:12;;;;;;;14.13;9.63;;;18.10;99.90;;;;;;5109595;28;20490;-64
2022/06/27 05:36:38;;;;;;;15.68;9.73;;;18.20;99.90;;;;;;5111325;28;20061;-64
2022/06/27 05:39:04;;;;;;;19.08;10.52;;;18.20;99.90;;;;;;5113917;28;20093;-64
2022/06/27 05:41:30;;;;;;;14.45;9.20;;;18.20;99.90;;;;;;5113080;28;20089;-64
2022/06/27 05:43:56;;;;;;;16.15;9.95;;;18.20;99.90;;;;;;5113394;28;20470;-63
2022/06/27 05:46:23;;;;;;;14.55;10.43;;;18.20;99.90;;;;;;5113480;28;20020;-63
2022/06/27 05:48:48;;;;;;;16.27;9.70;;;18.20;99.90;;;;;;5113176;28;20060;-64
2022/06/27 05:51:14;;;;;;;13.73;10.45;;;18.20;99.90;;;;;;5113238;28;20039;-63
2022/06/27 05:53:40;;;;;;;12.45;9.02;;;18.10;99.90;;;;;;5112870;28;20453;-64
2022/06/27 05:56:06;;;;;;;15.00;9.85;;;18.00;99.90;;;;;;5112965;28;20051;-63
2022/06/27 05:58:33;;;;;;;13.45;7.60;;;18.10;99.90;;;;;;5113484;28;20402;-64
2022/06/27 06:00:58;;;;;;;11.15;8.38;;;18.10;99.90;;;;;;5112886;28;20068;-65
2022/06/27 06:03:25;;;;;;;13.27;8.27;;;18.20;99.90;;;;;;5113278;28;20470;-64
2022/06/27 06:05:51;;;;;;;13.57;9.52;;;18.30;99.90;;;;;;5112434;28;20027;-63
2022/06/27 06:08:17;;;;;;;12.80;9.30;;;18.40;99.90;;;;;;5112882;28;20062;-64
2022/06/27 06:10:43;;;;;;;12.15;8.27;;;18.40;99.90;;;;;;5113067;28;20055;-63
2022/06/27 06:13:08;;;;;;;14.52;8.80;;;18.40;99.90;;;;;;5112747;28;20028;-64
2022/06/27 06:15:36;;;;;;;12.98;8.70;;;18.50;99.90;;;;;;5094336;28;20019;-64
2022/06/27 06:18:03;;;;;;;15.82;10.00;;;18.40;99.90;;;;;;5113065;28;20016;-64
2022/06/27 06:20:28;;;;;;;8.85;6.82;;;18.40;99.90;;;;;;5112445;28;20487;-64
2022/06/27 06:22:54;;;;;;;10.70;8.23;;;18.40;99.90;;;;;;5112399;28;20065;-64
2022/06/27 06:25:20;;;;;;;15.20;10.05;;;18.40;99.90;;;;;;5113374;28;20127;-64
2022/06/27 06:27:46;;;;;;;14.65;9.32;;;18.30;99.90;;;;;;5112905;28;20028;-64
2022/06/27 06:30:12;;;;;;;16.13;10.73;;;18.20;99.90;;;;;;5112351;28;20115;-64
2022/06/27 06:32:37;;;;;;;19.42;10.70;;;18.30;99.90;;;;;;5112356;28;20016;-64
2022/06/27 06:35:05;;;;;;;19.13;10.35;;;18.10;99.90;;;;;;5112222;28;20136;-64
2022/06/27 06:37:31;;;;;;;12.20;8.80;;;18.20;99.90;;;;;;5112927;28;20076;-64
2022/06/27 06:39:57;;;;;;;19.90;10.57;;;18.20;99.90;;;;;;5112193;28;20023;-63
2022/06/27 06:42:23;;;;;;;17.30;10.98;;;18.30;99.90;;;;;;5112043;28;20031;-65
2022/06/27 06:44:49;;;;;;;18.67;11.02;;;18.30;99.90;;;;;;5112407;28;20477;-64
2022/06/27 06:47:16;;;;;;;18.50;9.85;;;18.30;99.90;;;;;;5112004;28;20412;-64
2022/06/27 06:49:44;;;;;;;16.58;10.02;;;18.40;99.90;;;;;;5111423;28;20343;-64
2022/06/27 06:52:10;;;;;;;17.83;10.93;;;18.50;99.90;;;;;;5111703;28;20024;-64
2022/06/27 06:54:36;;;;;;;18.30;12.13;;;18.60;99.90;;;;;;5112087;28;20036;-65
2022/06/27 06:57:02;;;;;;;23.58;12.40;;;18.80;99.90;;;;;;5112340;28;20026;-62
2022/06/27 06:59:28;;;;;;;20.17;13.32;;;18.90;99.90;;;;;;5112641;28;20036;-63
2022/06/27 07:01:54;;;;;;;17.48;11.73;;;18.80;99.90;;;;;;5110965;28;20144;-63
2022/06/27 07:04:20;;;;;;;19.85;12.88;;;18.80;99.90;;;;;;5112607;28;20032;-64
2022/06/27 07:06:46;;;;;;;17.25;11.95;;;18.70;99.90;;;;;;5112114;28;20529;-64
2022/06/27 07:09:12;;;;;;;21.27;13.10;;;18.70;99.90;;;;;;5111831;28;20139;-63
2022/06/27 07:11:39;;;;;;;25.23;13.68;;;18.70;99.90;;;;;;5111331;28;20044;-63
2022/06/27 07:14:05;;;;;;;17.92;12.10;;;18.70;99.90;;;;;;5112051;28;20027;-64
2022/06/27 07:16:31;;;;;;;19.83;13.48;;;18.70;99.90;;;;;;5111953;28;20027;-63
2022/06/27 07:19:00;;;;;;;17.63;12.25;;;18.80;99.90;;;;;;5111818;28;20110;-64
2022/06/27 07:21:28;;;;;;;22.48;12.98;;;18.90;99.90;;;;;;5111591;28;20035;-64
2022/06/27 07:23:55;;;;;;;18.33;13.13;;;19.00;99.90;;;;;;5111464;28;20019;-63
2022/06/27 07:26:22;;;;;;;17.73;11.70;;;19.10;99.90;;;;;;5110962;28;20027;-64
2022/06/27 07:28:49;;;;;;;20.17;12.65;;;19.00;99.90;;;;;;5111435;28;20420;-63
2022/06/27 07:31:15;;;;;;;22.58;13.57;;;18.90;99.90;;;;;;5110980;28;20402;-64
2022/06/27 07:33:42;;;;;;;21.13;13.40;;;18.90;99.90;;;;;;5111325;28;20020;-63
2022/06/27 07:36:14;;;;;;;18.45;11.23;;;18.80;99.90;;;;;;5111922;28;20020;-63
2022/06/27 07:38:41;;;;;;;16.27;11.00;;;18.80;99.90;;;;;;5111002;28;20031;-64
2022/06/27 07:41:10;;;;;;;15.43;9.82;;;18.90;99.90;;;;;;5111066;28;20055;-64
2022/06/27 07:43:37;;;;;;;17.05;10.20;;;19.00;99.90;;;;;;5111144;28;20782;-63
2022/06/27 07:46:03;;;;;;;15.10;9.55;;;19.20;99.90;;;;;;5111463;28;20023;-63
2022/06/27 07:48:30;;;;;;;19.42;11.18;;;19.40;99.90;;;;;;5111521;28;20103;-62
2022/06/27 07:50:56;;;;;;;17.73;11.25;;;19.40;99.90;;;;;;5110829;28;20065;-63
2022/06/27 07:53:23;;;;;;;16.38;11.40;;;19.30;99.90;;;;;;5109971;28;20041;-63
2022/06/27 07:55:52;;;;;;;18.45;10.80;;;19.30;99.90;;;;;;5110910;28;20059;-63
2022/06/27 07:58:23;;;;;;;17.55;10.13;;;19.30;99.90;;;;;;5110804;28;20019;-63
2022/06/27 08:00:49;;;;;;;16.42;9.73;;;19.40;99.90;;;;;;5110811;28;20103;-63
2022/06/27 08:06:02;;;;;;;18.30;10.13;;;19.50;99.90;;;;;;5110560;28;20149;-63
2022/06/27 08:08:28;;;;;;;18.52;11.25;;;19.40;99.90;;;;;;5111297;28;20020;-63
2022/06/27 08:10:54;;;;;;;14.88;9.88;;;19.30;99.90;;;;;;5110248;28;20019;-63
2022/06/27 08:13:20;;;;;;;16.00;9.73;;;19.30;99.90;;;;;;5109880;28;20035;-63
2022/06/27 08:15:48;;;;;;;18.52;9.55;;;19.30;99.90;;;;;;5110699;28;20027;-64
2022/06/27 08:18:16;;;;;;;13.63;9.60;;;19.30;99.90;;;;;;5110704;28;20035;-64
2022/06/27 08:20:42;;;;;;;14.13;9.70;;;19.20;99.90;;;;;;5110478;28;20024;-63
2022/06/27 08:23:09;;;;;;;18.58;9.50;;;19.20;99.90;;;;;;5110638;28;20139;-63
2022/06/27 08:25:35;;;;;;;17.92;8.23;;;19.30;99.90;;;;;;5110783;28;20595;-63
2022/06/27 08:28:01;;;;;;;12.43;8.07;;;19.30;99.90;;;;;;5110380;28;20019;-63
2022/06/27 08:30:27;;;;;;;13.82;9.50;;;19.40;99.90;;;;;;5110549;28;20031;-63
2022/06/27 08:32:59;;;;;;;14.32;9.30;;;19.30;99.90;;;;;;5109914;28;20028;-62
2022/06/27 08:35:26;;;;;;;13.68;8.75;;;19.30;99.90;;;;;;5109896;28;20031;-63
2022/06/27 08:37:52;;;;;;;14.25;9.77;;;19.20;99.90;;;;;;5109868;28;20073;-63
2022/06/27 08:40:18;;;;;;;16.95;10.30;;;19.20;99.90;;;;;;5091341;28;20114;-63
2022/06/27 08:42:44;;;;;;;17.52;10.30;;;19.10;99.90;;;;;;5109906;28;20024;-63
2022/06/27 08:45:14;;;;;;;13.98;9.60;;;19.10;99.90;;;;;;5110285;28;20024;-63
2022/06/27 08:47:41;;;;;;;16.77;10.45;;;19.00;99.90;;;;;;5110247;28;20020;-63
2022/06/27 08:50:08;;;;;;;16.80;11.02;;;19.00;99.90;;;;;;5109761;28;20115;-63
2022/06/27 08:52:39;;;;;;;18.38;11.52;;;18.90;99.90;;;;;;5109760;28;20028;-63
2022/06/27 08:55:08;;;;;;;16.65;11.40;;;19.00;99.90;;;;;;5109079;28;20041;-63
2022/06/27 08:57:36;;;;;;;20.17;10.15;;;18.90;99.90;;;;;;5109933;28;20028;-63
2022/06/27 09:00:06;;;;;;;14.80;9.10;;;18.90;99.90;;;;;;5109928;28;20020;-63
2022/06/27 09:02:36;;;;;;;16.65;11.02;;;18.90;99.90;;;;;;5109672;28;20032;-63
2022/06/27 09:05:03;;;;;;;17.45;10.15;;;18.90;99.90;;;;;;5109861;28;20058;-63
2022/06/27 09:07:48;;;;;;;16.65;9.20;;;19.00;99.90;;;;;;5109995;28;20020;-63
2022/06/27 09:10:29;;;;;;;15.48;8.07;;;19.10;99.90;;;;;;5109665;28;20027;-63
2022/06/27 09:12:58;;;;;;;13.40;8.10;;;19.10;99.90;;;;;;5113413;28;20164;-63
2022/06/27 09:15:49;;;;;;;12.38;8.20;;;19.20;99.90;;;;;;5114172;28;20047;-63
2022/06/27 09:18:37;;;;;;;15.88;8.70;;;19.20;99.90;;;;;;5100314;28;20104;-62
2022/06/27 09:21:06;;;;;;;19.55;11.05;;;19.30;99.90;;;;;;5113444;28;20039;-63
2022/06/27 09:23:43;;;;;;;19.33;10.15;;;19.40;99.90;;;;;;5113509;28;20028;-64
2022/06/27 09:26:14;;;;;;;10.30;7.88;;;19.40;99.90;;;;;;5114198;28;20043;-64
2022/06/27 09:28:43;;;;;;;13.25;8.15;;;19.40;99.90;;;;;;5113357;28;20031;-63
2022/06/27 09:31:28;;;;;;;16.63;8.52;;;19.40;99.90;;;;;;5113828;28;20016;-63
2022/06/27 09:34:25;;;;;;;;;;;19.50;99.90;;;;;;5100425;22;20051;-59
2022/06/27 09:36:53;;;;;;;12.27;8.80;;;19.50;99.90;;;;;;5057099;28;19905;-61
2022/06/27 09:39:32;;;;;;;16.05;10.20;;;19.50;99.90;;;;;;5073053;28;20069;-61
2022/06/27 09:42:15;;;;;;;17.02;10.13;;;19.50;99.90;;;;;;5073211;28;20062;-60
2022/06/27 09:44:42;;;;;;;14.07;9.85;;;19.40;99.90;;;;;;5074164;28;20028;-61
2022/06/27 09:47:16;;;;;;;19.58;13.32;;;19.50;99.90;;;;;;5074530;28;20028;-60
2022/06/27 09:49:50;;;;;;;20.10;12.18;;;19.50;99.90;;;;;;5074634;28;20024;-59
2022/06/27 09:52:20;;;;;;;;;;;19.60;99.90;;;;;;5074648;28;20111;-60
2022/06/27 09:54:48;;;;;;;20.80;14.10;;;19.80;99.90;;;;;;5074365;28;19908;-61
2022/06/27 09:57:15;;;;;;;17.98;13.13;;;19.90;99.90;;;;;;5074333;28;20052;-60
2022/06/27 09:59:42;;;;;;;21.65;13.45;;;20.10;99.90;;;;;;5072102;28;20536;-59
2022/06/27 10:02:08;;;;;;;21.80;13.68;;;20.30;99.90;;;;;;5073103;28;20020;-60
2022/06/27 10:04:37;;;;;;;23.95;14.68;;;20.40;99.90;;;;;;5074132;28;20039;-60
2022/06/27 10:07:06;;;;;;;24.77;15.50;;;20.50;99.90;;;;;;5074341;28;20376;-60
2022/06/27 10:09:32;;;;;;;20.60;12.95;;;20.70;99.90;;;;;;5074147;28;20020;-61
2022/06/27 10:12:22;;;;;;;23.27;14.70;;;20.70;99.90;;;;;;5073742;28;20483;-59
2022/06/27 10:15:10;;;;;;;21.08;12.57;;;20.60;99.90;;;;;;5073920;28;20051;-61
2022/06/27 10:17:51;;;;;;;17.00;10.93;;;20.70;99.90;;;;;;5054079;28;20021;-61
2022/06/27 10:20:20;;;;;;;21.23;11.38;;;20.70;99.90;;;;;;5073234;28;20052;-61
2022/06/27 10:23:04;;;;;;;18.60;10.98;;;20.70;99.90;;;;;;5073535;28;20032;-61
2022/06/27 10:25:29;;;;;;;18.55;10.60;;;20.60;99.90;;;;;;5073925;28;20490;-60
2022/06/27 10:28:08;;;;;;;18.90;11.05;;;20.50;99.90;;;;;;5073912;28;20073;-60
2022/06/27 10:30:51;;;;;;;19.95;11.65;;;20.30;99.90;;;;;;5072855;28;20024;-61
2022/06/27 10:33:26;;;;;;;21.77;12.47;;;20.20;99.90;;;;;;5073413;28;20033;-60
2022/06/27 10:35:57;;;;;;;18.67;12.25;;;20.20;99.90;;;;;;5073785;28;20031;-60
2022/06/27 10:38:45;;;;;;;23.27;12.52;;;20.10;99.90;;;;;;5073692;28;20020;-60
2022/06/27 10:41:17;;;;;;;26.33;13.55;;;20.10;99.90;;;;;;5073451;28;20028;-61
2022/06/27 10:43:50;;;;;;;18.85;11.23;;;20.00;99.90;;;;;;5073191;28;20025;-60
2022/06/27 10:46:16;;;;;;;27.95;14.20;;;20.00;99.90;;;;;;5073701;28;20037;-61
2022/06/27 10:48:45;;;;;;;21.60;11.27;;;20.10;99.90;;;;;;5073563;28;20029;-61
2022/06/27 10:51:22;;;;;;;21.40;12.32;;;20.20;99.90;;;;;;5073246;28;20107;-60
2022/06/27 10:54:06;;;;;;;20.65;12.23;;;20.30;99.90;;;;;;5073063;28;20479;-61
2022/06/27 10:56:33;;;;;;;21.50;11.50;;;20.40;99.90;;;;;;5073306;28;20226;-60
2022/06/27 10:59:01;;;;;;;22.15;11.30;;;20.50;99.90;;;;;;5073404;28;20130;-61
2022/06/27 11:01:27;;;;;;;28.48;13.30;;;20.70;99.90;;;;;;5072760;28;20062;-60
2022/06/27 11:03:53;;;;;;;22.92;13.32;;;20.80;99.90;;;;;;5073239;28;20032;-60
2022/06/27 11:06:19;;;;;;;28.75;13.77;;;20.70;99.90;;;;;;5073192;28;20391;-60
2022/06/27 11:08:47;;;;;;;23.27;12.15;;;20.50;99.90;;;;;;5054934;28;20029;-60
2022/06/27 11:11:22;;;;;;;22.48;11.80;;;20.50;99.90;;;;;;5073383;28;20078;-61
2022/06/27 11:13:50;;;;;;;20.33;12.15;;;20.60;99.90;;;;;;5054877;28;20020;-60
2022/06/27 11:16:35;;;;;;;16.85;11.35;;;20.50;99.90;;;;;;5073027;28;20063;-60
2022/06/27 11:20:04;;;;;;;28.58;13.38;;;20.50;99.90;;;;;;5072975;28;20036;-60
2022/06/27 11:21:54;;;;;;;19.77;12.63;;;20.30;99.90;;;;;;5072090;28;20112;-59
2022/06/27 11:24:20;;;;;;;28.83;14.13;;;20.30;99.90;;;;;;5072500;28;20402;-60
2022/06/27 11:26:48;;;;;;;28.60;14.68;;;20.20;99.90;;;;;;5072761;28;20028;-58
2022/06/27 11:32:13;;;;;;;18.52;12.07;;;20.30;99.90;;;;;;5072074;28;20147;-60
2022/06/27 11:34:41;;;;;;;24.02;14.35;;;20.50;99.90;;;;;;5071945;28;20038;-59
2022/06/27 11:37:10;;;;;;;21.70;12.15;;;20.70;99.90;;;;;;5072388;28;20039;-60
2022/06/27 11:39:36;;;;;;;23.05;13.50;;;20.80;99.90;;;;;;5072514;28;20025;-60
2022/06/27 11:42:09;;;;;;;19.67;12.07;;;20.80;99.90;;;;;;5071946;28;20482;-60
2022/06/27 11:44:58;;;;;;;18.65;12.23;;;21.00;99.90;;;;;;5072373;28;20102;-60
2022/06/27 11:47:27;;;;;;;21.67;11.85;;;21.10;99.90;;;;;;5072264;28;20029;-61
2022/06/27 11:50:02;;;;;;;22.35;12.55;;;21.50;99.90;;;;;;5072301;28;20012;-60
2022/06/27 11:52:38;;;;;;;25.00;12.57;;;21.70;99.90;;;;;;5071703;28;20060;-60
2022/06/27 11:55:18;;;;;;;22.55;11.80;;;21.40;99.90;;;;;;5072282;28;20031;-61
2022/06/27 11:57:49;;;;;;;20.98;10.55;;;21.30;99.90;;;;;;5072065;28;20025;-60
2022/06/27 12:00:20;;;;;;;13.98;9.55;;;21.30;99.90;;;;;;5072482;28;20379;-59
2022/06/27 12:03:09;;;;;;;19.77;10.68;;;21.30;99.90;;;;;;5071567;28;20021;-61
2022/06/27 12:05:37;;;;;;;19.55;11.38;;;21.40;99.90;;;;;;5068477;28;20393;-61
2022/06/27 12:08:06;;;;;;;15.93;9.60;;;21.40;99.90;;;;;;5071863;28;20047;-59
2022/06/27 12:10:35;;;;;;;17.38;10.52;;;21.50;99.90;;;;;;5071830;28;20145;-60
2022/06/27 12:13:08;;;;;;;18.80;11.02;;;21.50;99.90;;;;;;5070823;28;20093;-60
2022/06/27 12:15:35;;;;;;;17.80;9.63;;;21.60;99.90;;;;;;5070130;28;20021;-60
2022/06/27 12:18:02;;;;;;;16.88;10.05;;;21.60;99.90;;;;;;5071645;28;20036;-60
2022/06/27 12:20:30;;;;;;;18.50;10.88;;;21.40;99.90;;;;;;5071346;28;20114;-61
2022/06/27 12:22:56;;;;;;;22.80;12.50;;;21.50;99.90;;;;;;5071015;28;20032;-59
2022/06/27 12:25:22;;;;;;;18.27;10.73;;;21.70;99.90;;;;;;5071467;28;20032;-59
2022/06/27 12:27:48;;;;;;;16.98;10.05;;;21.70;99.90;;;;;;5071402;28;20459;-59
2022/06/27 12:30:14;;;;;;;14.70;8.77;;;21.70;99.90;;;;;;5071487;28;20029;-60
2022/06/27 12:32:41;;;;;;;16.45;10.23;;;21.60;99.90;;;;;;5070822;28;20043;-60
2022/06/27 12:35:07;;;;;;;13.85;9.15;;;21.30;99.90;;;;;;5071135;28;20044;-60
2022/06/27 12:37:39;;;;;;;14.40;9.55;;;21.40;99.90;;;;;;5071421;28;20483;-60
2022/06/27 12:40:06;;;;;;;14.48;7.72;;;21.40;99.90;;;;;;5071188;28;20028;-59
2022/06/27 12:42:32;;;;;;;14.95;7.20;;;21.50;99.90;;;;;;5070971;28;20029;-59
2022/06/27 12:44:57;;;;;;;13.10;6.25;;;21.80;99.90;;;;;;5071016;28;20037;-58
2022/06/27 12:47:23;;;;;;;8.13;5.55;;;21.70;99.90;;;;;;5070769;28;20028;-59
2022/06/27 12:49:48;;;;;;;10.48;5.80;;;22.00;99.90;;;;;;5071203;28;20486;-59